createdAt,value
2023-10-05T00:02:22.708Z,3.20
2023-10-05T00:04:52.686Z,1.70
2023-10-05T00:07:28.668Z,0.50
2023-10-05T00:09:58.955Z,3.40
2023-10-05T00:12:26.993Z,5.20
2023-10-05T00:15:21.352Z,2.70
2023-10-05T00:17:50.609Z,2.60
2023-10-05T00:20:34.592Z,6.40
2023-10-05T00:23:04.821Z,2.20
2023-10-05T00:25:33.810Z,6.20
2023-10-05T00:28:06.633Z,3.50
2023-10-05T00:30:35.064Z,5.00
2023-10-05T00:33:06.248Z,3.00
2023-10-05T00:35:35.066Z,3.00
2023-10-05T00:38:20.988Z,5.10
2023-10-05T00:41:06.460Z,2.00
2023-10-05T00:43:34.127Z,2.50
2023-10-05T00:46:02.085Z,2.90
2023-10-05T00:48:43.586Z,3.30
2023-10-05T00:51:16.262Z,3.10
2023-10-05T00:53:43.917Z,1.70
2023-10-05T00:56:15.470Z,0.90
2023-10-05T00:58:48.176Z,3.10
2023-10-05T01:01:29.435Z,2.30
2023-10-05T01:04:12.980Z,4.40
2023-10-05T01:06:50.989Z,1.00
2023-10-05T01:09:37.472Z,2.00
2023-10-05T01:12:08.415Z,2.30
2023-10-05T01:14:41.346Z,2.00
2023-10-05T01:17:10.247Z,1.90
2023-10-05T01:19:40.647Z,1.90
2023-10-05T01:22:14.389Z,2.50
2023-10-05T01:24:43.104Z,5.50
2023-10-05T01:27:12.511Z,1.90
2023-10-05T01:29:40.883Z,2.10
2023-10-05T01:32:17.727Z,3.00
2023-10-05T01:34:50.754Z,0.50
2023-10-05T01:37:19.816Z,1.50
2023-10-05T01:39:47.705Z,4.60
2023-10-05T01:42:15.926Z,1.80
2023-10-05T01:44:48.493Z,2.60
2023-10-05T01:47:17.700Z,4.30
2023-10-05T01:49:46.888Z,3.70
2023-10-05T01:52:18.059Z,11.30
2023-10-05T01:54:46.257Z,9.30
2023-10-05T01:57:18.122Z,6.70
2023-10-05T01:59:46.031Z,6.70
2023-10-05T02:02:17.310Z,12.40
2023-10-05T02:04:46.157Z,5.40
2023-10-05T02:07:16.353Z,4.10
2023-10-05T02:09:44.972Z,6.10
2023-10-05T02:12:12.685Z,6.90
2023-10-05T02:14:43.099Z,5.70
2023-10-05T02:17:11.575Z,6.30
2023-10-05T02:19:42.822Z,4.80
2023-10-05T02:22:13.154Z,2.40
2023-10-05T02:24:44.210Z,3.30
2023-10-05T02:27:16.134Z,4.30
2023-10-05T02:29:45.026Z,2.20
2023-10-05T02:32:16.663Z,2.40
2023-10-05T02:35:01.402Z,8.00
2023-10-05T02:37:38.131Z,6.00
2023-10-05T02:40:10.001Z,3.20
2023-10-05T02:42:40.814Z,3.30
2023-10-05T02:45:10.550Z,6.20
2023-10-05T02:47:38.557Z,4.60
2023-10-05T02:50:07.830Z,3.20
2023-10-05T02:52:35.921Z,5.90
2023-10-05T02:55:07.891Z,2.60
2023-10-05T02:57:35.570Z,2.40
2023-10-05T03:00:04.121Z,2.80
2023-10-05T03:02:38.714Z,1.00
2023-10-05T03:05:09.055Z,0.60
2023-10-05T03:07:37.168Z,1.00
2023-10-05T03:10:06.017Z,2.10
2023-10-05T03:12:37.414Z,3.80
2023-10-05T03:15:09.223Z,5.00
2023-10-05T03:17:39.610Z,7.00
2023-10-05T03:20:16.655Z,3.90
2023-10-05T03:22:47.816Z,3.10
2023-10-05T03:25:17.887Z,1.70
2023-10-05T03:27:47.792Z,1.50
2023-10-05T03:30:17.914Z,1.60
2023-10-05T03:32:50.199Z,0.80
2023-10-05T03:35:24.094Z,2.60
2023-10-05T03:37:51.920Z,3.00
2023-10-05T03:40:26.584Z,3.10
2023-10-05T03:43:01.436Z,5.70
2023-10-05T03:45:35.157Z,2.70
2023-10-05T03:48:03.912Z,2.50
2023-10-05T03:50:32.112Z,2.30
2023-10-05T03:53:02.232Z,5.30
2023-10-05T03:55:29.943Z,6.50
2023-10-05T03:57:59.096Z,15.30
2023-10-05T04:00:36.954Z,12.10
2023-10-05T04:03:09.894Z,13.10
2023-10-05T04:05:41.663Z,11.50
2023-10-05T04:08:13.523Z,6.00
2023-10-05T04:10:48.066Z,8.30
2023-10-05T04:13:17.912Z,11.20
2023-10-05T04:15:45.589Z,8.70
2023-10-05T04:18:16.675Z,8.20
2023-10-05T04:20:51.190Z,6.00
2023-10-05T04:23:27.926Z,2.80
2023-10-05T04:25:59.252Z,4.70
2023-10-05T04:28:34.368Z,2.20
2023-10-05T04:33:30.948Z,4.70
2023-10-05T04:35:58.718Z,8.40
2023-10-05T04:38:26.701Z,10.00
2023-10-05T04:40:56.080Z,7.50
2023-10-05T04:43:23.774Z,9.10
2023-10-05T04:45:52.834Z,9.70
2023-10-05T04:48:20.903Z,4.80
2023-10-05T04:50:51.129Z,4.80
2023-10-05T04:53:21.596Z,5.50
2023-10-05T04:55:51.667Z,1.60
2023-10-05T04:58:24.714Z,6.00
2023-10-05T05:01:16.044Z,1.40
2023-10-05T05:03:57.896Z,1.10
2023-10-05T05:06:28.879Z,2.30
2023-10-05T05:08:56.777Z,1.50
2023-10-05T05:15:47.302Z,7.40
2023-10-05T05:18:16.776Z,3.40
2023-10-05T05:20:48.738Z,3.80
2023-10-05T05:23:18.098Z,3.00
2023-10-05T05:25:52.873Z,2.00
2023-10-05T05:28:20.722Z,3.50
2023-10-05T05:30:48.743Z,3.60
2023-10-05T05:33:18.968Z,4.60
2023-10-05T05:35:47.747Z,4.60
2023-10-05T05:38:16.941Z,5.20
2023-10-05T05:40:45.733Z,1.60
2023-10-05T05:43:14.377Z,3.90
2023-10-05T05:45:45.255Z,4.50
2023-10-05T05:48:15.979Z,1.70
2023-10-05T05:50:45.150Z,7.60
2023-10-05T05:53:13.044Z,6.80
2023-10-05T05:55:45.946Z,2.40
2023-10-05T05:58:18.588Z,4.80
2023-10-05T06:00:47.975Z,5.90
2023-10-05T06:03:15.920Z,1.40
2023-10-05T06:05:44.038Z,2.60
2023-10-05T06:08:13.438Z,4.50
2023-10-05T06:10:44.710Z,7.10
2023-10-05T06:13:13.996Z,9.20
2023-10-05T06:15:43.591Z,5.70
2023-10-05T06:18:11.409Z,6.10
2023-10-05T06:20:39.649Z,2.70
2023-10-05T06:23:07.493Z,2.20
2023-10-05T06:25:35.553Z,4.00
2023-10-05T06:28:12.840Z,4.70
2023-10-05T06:35:19.620Z,5.10
2023-10-05T06:37:47.570Z,4.70
2023-10-05T06:40:15.701Z,5.80
2023-10-05T06:42:45.156Z,4.40
2023-10-05T06:45:15.194Z,7.70
2023-10-05T06:47:43.757Z,3.20
2023-10-05T06:50:12.395Z,3.40
2023-10-05T06:52:42.269Z,3.30
2023-10-05T06:55:17.561Z,4.90
2023-10-05T06:57:46.118Z,1.10
2023-10-05T07:00:21.789Z,3.30
2023-10-05T07:03:00.669Z,3.00
2023-10-05T07:05:31.511Z,3.20
2023-10-05T07:07:59.799Z,3.00
2023-10-05T07:10:29.233Z,4.00
2023-10-05T07:12:57.367Z,2.20
2023-10-05T07:15:25.223Z,4.90
2023-10-05T07:17:53.005Z,4.60
2023-10-05T07:20:21.239Z,4.20
2023-10-05T07:22:49.747Z,2.90
2023-10-05T07:25:21.197Z,4.30
2023-10-05T07:27:49.679Z,4.00
2023-10-05T07:30:17.682Z,5.20
2023-10-05T07:32:50.677Z,1.60
2023-10-05T07:35:29.554Z,3.00
2023-10-05T07:37:57.324Z,3.20
2023-10-05T07:40:25.012Z,4.40
2023-10-05T07:42:53.056Z,2.40
2023-10-05T07:45:20.869Z,2.10
2023-10-05T07:47:49.486Z,2.60
2023-10-05T07:50:17.151Z,1.50
2023-10-05T07:52:51.507Z,2.50
2023-10-05T07:55:19.450Z,1.30
2023-10-05T07:57:48.268Z,3.20
2023-10-05T08:00:17.400Z,3.90
2023-10-05T08:02:45.299Z,3.50
2023-10-05T08:05:14.329Z,3.10
2023-10-05T08:07:42.998Z,1.50
2023-10-05T08:10:17.125Z,1.70
2023-10-05T08:12:45.497Z,5.20
2023-10-05T08:15:19.917Z,1.30
2023-10-05T08:17:50.190Z,2.00
2023-10-05T08:20:25.827Z,1.70
2023-10-05T08:22:58.688Z,2.50
2023-10-05T08:25:26.857Z,2.90
2023-10-05T08:27:57.602Z,1.30
2023-10-05T08:30:26.541Z,1.60
2023-10-05T08:36:57.810Z,3.80
2023-10-05T08:39:31.597Z,2.20
2023-10-05T08:42:04.610Z,10.80
2023-10-05T08:44:38.202Z,1.90
2023-10-05T08:47:19.307Z,1.00
2023-10-05T08:49:52.864Z,1.90
2023-10-05T08:52:23.000Z,2.80
2023-10-05T08:54:53.526Z,2.00
2023-10-05T08:57:23.225Z,1.70
2023-10-05T08:59:52.279Z,1.50
2023-10-05T09:02:23.573Z,2.40
2023-10-05T09:04:52.645Z,1.20
2023-10-05T09:07:36.393Z,6.00
2023-10-05T09:10:09.881Z,1.50
2023-10-05T09:12:42.413Z,2.70
2023-10-05T09:15:24.108Z,2.10
2023-10-05T09:17:59.196Z,2.30
2023-10-05T09:20:34.682Z,4.50
2023-10-05T09:23:09.066Z,3.10
2023-10-05T09:25:46.693Z,2.90
2023-10-05T09:28:30.252Z,1.70
2023-10-05T09:31:09.160Z,2.10
2023-10-05T09:33:37.190Z,1.50
2023-10-05T09:36:21.459Z,4.00
2023-10-05T09:38:50.312Z,2.40
2023-10-05T09:41:21.625Z,2.40
2023-10-05T09:44:02.573Z,2.50
2023-10-05T09:46:30.558Z,2.90
2023-10-05T09:49:03.333Z,3.30
2023-10-05T09:51:31.238Z,2.00
2023-10-05T09:54:01.202Z,5.20
2023-10-05T09:56:41.262Z,3.80
2023-10-05T09:59:16.949Z,1.80
2023-10-05T10:01:46.938Z,7.60
2023-10-05T10:04:32.963Z,4.60
2023-10-05T10:07:02.869Z,2.70
2023-10-05T10:09:30.648Z,1.70
2023-10-05T10:12:01.672Z,4.30
2023-10-05T10:14:29.645Z,2.30
2023-10-05T10:17:03.878Z,3.10
2023-10-05T10:19:46.751Z,5.60
2023-10-05T10:22:14.569Z,2.10
2023-10-05T10:24:42.252Z,1.40
2023-10-05T10:27:14.653Z,1.90
2023-10-05T10:29:55.120Z,1.30
2023-10-05T10:32:24.497Z,5.40
2023-10-05T10:34:57.701Z,3.10
2023-10-05T10:37:38.092Z,2.50
2023-10-05T10:40:16.181Z,3.10
2023-10-05T10:43:09.033Z,4.50
2023-10-05T10:45:43.173Z,1.80
2023-10-05T10:48:35.309Z,5.30
2023-10-05T10:51:11.959Z,0.80
2023-10-05T10:53:41.423Z,5.40
2023-10-05T10:56:21.722Z,1.10
2023-10-05T10:58:58.346Z,2.10
2023-10-05T11:01:42.465Z,21.20
2023-10-05T11:04:27.106Z,2.90
2023-10-05T11:07:01.269Z,2.20
2023-10-05T11:09:32.536Z,2.40
2023-10-05T11:12:12.732Z,2.30
2023-10-05T11:14:43.369Z,1.50
2023-10-05T11:17:30.164Z,6.50
2023-10-05T11:20:14.102Z,3.50
2023-10-05T11:22:44.270Z,2.60
2023-10-05T11:25:18.400Z,2.30
2023-10-05T11:27:56.850Z,1.90
2023-10-05T11:31:01.360Z,1.40
2023-10-05T11:34:07.972Z,7.30
2023-10-05T11:36:35.620Z,4.30
2023-10-05T11:39:04.525Z,2.10
2023-10-05T11:41:34.868Z,1.40
2023-10-05T11:44:13.393Z,3.60
2023-10-05T11:46:48.768Z,3.10
2023-10-05T11:49:17.599Z,0.70
2023-10-05T11:52:11.596Z,3.20
2023-10-05T11:54:47.262Z,2.10
2023-10-05T11:57:21.609Z,1.90
2023-10-05T11:59:49.953Z,2.20
2023-10-05T12:02:19.310Z,0.60
2023-10-05T12:04:47.755Z,2.90
2023-10-05T12:07:16.720Z,0.60
2023-10-05T12:09:44.831Z,2.00
2023-10-05T12:12:14.881Z,1.70
2023-10-05T12:14:43.102Z,1.10
2023-10-05T12:17:13.330Z,2.90
2023-10-05T12:19:41.182Z,2.50
2023-10-05T12:22:15.472Z,1.10
2023-10-05T12:24:45.024Z,1.20
2023-10-05T12:27:40.132Z,1.20
2023-10-05T12:30:14.234Z,3.80
2023-10-05T12:32:45.568Z,1.30
2023-10-05T12:35:21.344Z,4.00
2023-10-05T12:37:51.288Z,2.00
2023-10-05T12:40:20.966Z,2.00
2023-10-05T12:43:15.579Z,2.60
2023-10-05T12:45:47.780Z,3.60
2023-10-05T12:48:16.502Z,1.30
2023-10-05T12:50:44.499Z,0.60
2023-10-05T12:53:12.621Z,1.30
2023-10-05T12:55:40.542Z,2.60
2023-10-05T12:58:10.958Z,7.60
2023-10-05T13:00:43.286Z,1.00
2023-10-05T13:03:14.623Z,3.10
2023-10-05T13:05:48.449Z,1.50
2023-10-05T13:08:18.175Z,7.10
2023-10-05T13:10:46.636Z,3.20
2023-10-05T13:13:22.115Z,1.90
2023-10-05T13:15:51.996Z,2.70
2023-10-05T13:18:20.307Z,3.70
2023-10-05T13:20:49.450Z,1.70
2023-10-05T13:23:20.638Z,1.30
2023-10-05T13:25:51.764Z,3.30
2023-10-05T13:28:22.127Z,2.10
2023-10-05T13:30:52.522Z,1.20
2023-10-05T13:33:24.549Z,4.70
2023-10-05T13:35:53.055Z,1.20
2023-10-05T13:38:28.921Z,2.40
2023-10-05T13:41:03.927Z,3.70
2023-10-05T13:43:36.329Z,2.10
2023-10-05T13:46:23.916Z,1.00
2023-10-05T13:48:58.531Z,2.30
2023-10-05T13:51:26.212Z,2.00
2023-10-05T13:53:58.290Z,9.60
2023-10-05T13:56:32.750Z,1.70
2023-10-05T13:59:04.883Z,3.30
2023-10-05T14:01:41.929Z,2.70
2023-10-05T14:04:11.438Z,3.00
2023-10-05T14:10:40.739Z,2.30
2023-10-05T14:13:10.953Z,4.60
2023-10-05T14:15:39.623Z,2.90
2023-10-05T14:18:11.142Z,4.60
2023-10-05T14:20:39.875Z,3.90
2023-10-05T14:23:08.231Z,3.40
2023-10-05T14:25:36.834Z,2.90
2023-10-05T14:28:06.819Z,2.40
2023-10-05T14:30:34.559Z,2.60
2023-10-05T14:33:02.108Z,1.80
2023-10-05T14:35:29.737Z,1.50
2023-10-05T14:37:57.987Z,2.60
2023-10-05T14:40:28.088Z,7.50
2023-10-05T14:42:57.260Z,4.30
2023-10-05T14:45:28.334Z,3.70
2023-10-05T14:47:59.340Z,9.00
2023-10-05T14:50:27.552Z,4.40
2023-10-05T14:52:56.945Z,4.10
2023-10-05T14:55:24.796Z,3.60
2023-10-05T14:57:52.852Z,3.50
2023-10-05T15:00:20.360Z,1.80
2023-10-05T15:02:48.093Z,8.30
2023-10-05T15:05:19.053Z,6.10
2023-10-05T15:07:48.628Z,2.40
2023-10-05T15:10:19.442Z,3.10
2023-10-05T15:12:47.437Z,2.80
2023-10-05T15:15:17.177Z,3.40
2023-10-05T15:17:50.369Z,1.70
2023-10-05T15:20:18.690Z,1.70
2023-10-05T15:22:46.392Z,1.60
2023-10-05T15:25:17.186Z,4.30
2023-10-05T15:27:44.904Z,4.10
2023-10-05T15:30:16.855Z,1.60
2023-10-05T15:32:46.617Z,2.10
2023-10-05T15:35:15.962Z,0.60
2023-10-05T15:37:44.738Z,2.70
2023-10-05T15:40:16.451Z,2.50
2023-10-05T15:42:45.239Z,1.10
2023-10-05T15:45:14.866Z,2.30
2023-10-05T15:47:45.577Z,5.30
2023-10-05T15:50:23.226Z,2.00
2023-10-05T15:53:01.130Z,8.20
2023-10-05T15:55:32.108Z,17.70
2023-10-05T15:57:59.945Z,11.30
2023-10-05T16:00:28.698Z,16.40
2023-10-05T16:03:00.858Z,13.70
2023-10-05T16:05:33.287Z,14.70
2023-10-05T16:08:02.586Z,12.30
2023-10-05T16:10:30.805Z,5.70
2023-10-05T16:13:01.160Z,5.90
2023-10-05T16:15:29.125Z,4.40
2023-10-05T16:17:56.782Z,10.00
2023-10-05T16:20:27.257Z,5.90
2023-10-05T16:23:06.557Z,8.90
2023-10-05T16:25:35.553Z,16.70
2023-10-05T16:28:03.840Z,7.50
2023-10-05T16:30:31.989Z,5.60
2023-10-05T16:32:59.720Z,7.70
2023-10-05T16:35:27.618Z,2.90
2023-10-05T16:37:55.934Z,3.60
2023-10-05T16:40:26.411Z,5.40
2023-10-05T16:42:54.339Z,5.10
2023-10-05T16:45:23.076Z,6.60
2023-10-05T16:47:55.874Z,6.20
2023-10-05T16:50:24.969Z,3.80
2023-10-05T16:52:52.836Z,3.00
2023-10-05T16:55:21.486Z,3.00
2023-10-05T16:57:52.465Z,4.40
2023-10-05T17:00:24.455Z,1.20
2023-10-05T17:02:53.454Z,2.20
2023-10-05T17:05:23.918Z,1.90
2023-10-05T17:07:52.706Z,5.60
2023-10-05T17:10:20.692Z,5.30
2023-10-05T17:12:48.540Z,3.20
2023-10-05T17:15:18.015Z,2.90
2023-10-05T17:17:45.938Z,2.50
2023-10-05T17:20:13.876Z,1.80
2023-10-05T17:22:41.764Z,3.40
2023-10-05T17:25:10.030Z,2.90
2023-10-05T17:27:38.095Z,1.60
2023-10-05T17:30:06.769Z,6.20
2023-10-05T17:32:35.084Z,6.80
2023-10-05T17:35:03.121Z,7.40
2023-10-05T17:37:38.132Z,4.60
2023-10-05T17:40:08.462Z,6.80
2023-10-05T17:42:36.337Z,19.50
2023-10-05T17:45:08.651Z,28.90
2023-10-05T17:47:37.561Z,35.30
2023-10-05T17:50:06.671Z,28.10
2023-10-05T17:52:37.366Z,14.00
2023-10-05T17:55:10.540Z,10.90
2023-10-05T17:57:38.585Z,11.70
2023-10-05T18:00:07.244Z,4.00
2023-10-05T18:02:40.164Z,4.20
2023-10-05T18:05:11.059Z,6.70
2023-10-05T18:07:39.185Z,4.10
2023-10-05T18:10:09.114Z,3.50
2023-10-05T18:12:36.845Z,6.00
2023-10-05T18:15:07.089Z,2.40
2023-10-05T18:17:35.730Z,3.60
2023-10-05T18:20:04.855Z,3.80
2023-10-05T18:22:32.622Z,1.70
2023-10-05T18:25:02.049Z,5.80
2023-10-05T18:27:29.884Z,6.80
2023-10-05T18:29:59.446Z,4.80
2023-10-05T18:32:27.314Z,7.10
2023-10-05T18:34:55.471Z,5.70
2023-10-05T18:37:23.466Z,2.70
2023-10-05T18:39:51.140Z,7.00
2023-10-05T18:42:20.334Z,5.80
2023-10-05T18:44:48.201Z,5.70
2023-10-05T18:47:15.981Z,3.50
2023-10-05T18:49:43.729Z,7.70
2023-10-05T18:52:12.314Z,8.40
2023-10-05T18:54:39.959Z,3.30
2023-10-05T18:57:07.962Z,5.50
2023-10-05T18:59:36.477Z,14.40
2023-10-05T19:02:07.467Z,3.50
2023-10-05T19:04:35.477Z,3.70
2023-10-05T19:07:03.300Z,5.30
2023-10-05T19:09:31.053Z,3.90
2023-10-05T19:11:58.717Z,3.90
2023-10-05T19:14:26.376Z,4.80
2023-10-05T19:16:54.097Z,5.30
2023-10-05T19:19:21.922Z,1.90
2023-10-05T19:21:49.663Z,1.30
2023-10-05T19:24:17.333Z,2.20
2023-10-05T19:26:49.490Z,2.50
2023-10-05T19:29:20.025Z,4.30
2023-10-05T19:31:47.928Z,4.10
2023-10-05T19:34:16.773Z,4.20
2023-10-05T19:36:44.450Z,3.30
2023-10-05T19:39:12.303Z,4.70
2023-10-05T19:41:39.990Z,5.00
2023-10-05T19:44:07.887Z,2.70
2023-10-05T19:46:37.366Z,3.30
2023-10-05T19:49:07.856Z,3.50
2023-10-05T19:51:36.009Z,3.60
2023-10-05T19:54:05.176Z,3.40
2023-10-05T19:56:37.920Z,1.70
2023-10-05T19:59:06.181Z,2.60
2023-10-05T20:01:33.922Z,8.20
2023-10-05T20:04:06.543Z,6.10
2023-10-05T20:06:35.154Z,6.30
2023-10-05T20:09:02.661Z,5.30
2023-10-05T20:11:30.427Z,2.20
2023-10-05T20:13:58.017Z,2.30
2023-10-05T20:16:25.721Z,6.10
2023-10-05T20:18:53.511Z,3.10
2023-10-05T20:21:21.373Z,2.50
2023-10-05T20:23:49.036Z,3.10
2023-10-05T20:26:16.697Z,2.80
2023-10-05T20:28:44.384Z,3.10
2023-10-05T20:31:12.311Z,1.40
2023-10-05T20:33:40.803Z,1.70
2023-10-05T20:36:08.874Z,2.40
2023-10-05T20:38:36.642Z,4.40
2023-10-05T20:41:08.096Z,5.50
2023-10-05T20:43:35.922Z,2.90
2023-10-05T20:46:08.441Z,2.40
2023-10-05T20:48:36.085Z,1.00
2023-10-05T20:51:04.932Z,3.70
2023-10-05T20:53:33.082Z,5.20
2023-10-05T20:56:00.852Z,2.20
2023-10-05T20:58:28.583Z,4.10
2023-10-05T21:00:57.078Z,1.90
2023-10-05T21:03:24.817Z,2.30
2023-10-05T21:05:59.703Z,5.60
2023-10-05T21:08:27.618Z,3.70
2023-10-05T21:10:55.290Z,3.90
2023-10-05T21:13:23.038Z,4.50
2023-10-05T21:15:50.904Z,2.10
2023-10-05T21:18:19.576Z,1.50
2023-10-05T21:20:49.423Z,4.10
2023-10-05T21:23:17.988Z,3.60
2023-10-05T21:25:50.669Z,1.70
2023-10-05T21:28:18.633Z,4.30
2023-10-05T21:30:49.782Z,3.50
2023-10-05T21:33:18.657Z,6.50
2023-10-05T21:35:46.519Z,4.10
2023-10-05T21:38:14.386Z,1.20
2023-10-05T21:40:42.100Z,1.00
2023-10-05T21:43:09.813Z,2.30
2023-10-05T21:45:37.419Z,3.20
2023-10-05T21:48:05.631Z,2.00
2023-10-05T21:50:34.119Z,0.90
2023-10-05T21:53:02.736Z,1.50
2023-10-05T21:55:30.490Z,1.20
2023-10-05T21:57:58.124Z,7.70
2023-10-05T22:00:49.650Z,1.20
2023-10-05T22:03:18.178Z,3.20
2023-10-05T22:05:47.527Z,2.30
2023-10-05T22:08:16.727Z,4.60
2023-10-05T22:10:45.121Z,3.30
2023-10-05T22:13:13.170Z,2.20
2023-10-05T22:15:40.735Z,0.60
2023-10-05T22:18:08.581Z,3.20
2023-10-05T22:20:37.309Z,4.70
2023-10-05T22:23:07.554Z,2.10
2023-10-05T22:25:39.900Z,1.80
2023-10-05T22:28:09.092Z,1.90
2023-10-05T22:30:39.162Z,1.30
2023-10-05T22:33:10.949Z,2.00
2023-10-05T22:35:39.189Z,4.30
2023-10-05T22:38:07.182Z,1.70
2023-10-05T22:40:39.714Z,1.40
2023-10-05T22:43:11.121Z,2.90
2023-10-05T22:45:39.393Z,1.10
2023-10-05T22:48:07.252Z,4.30
2023-10-05T22:50:39.655Z,3.20
2023-10-05T22:53:07.706Z,2.10
2023-10-05T22:55:38.868Z,9.90
2023-10-05T22:58:06.596Z,3.90
2023-10-05T23:00:35.386Z,3.20
2023-10-05T23:03:03.369Z,1.90
2023-10-05T23:05:31.317Z,2.60
2023-10-05T23:07:59.193Z,1.30
2023-10-05T23:10:28.216Z,2.80
2023-10-05T23:12:57.720Z,3.40
2023-10-05T23:15:25.340Z,1.60
2023-10-05T23:17:53.063Z,3.80
2023-10-05T23:20:26.708Z,1.20
2023-10-05T23:22:54.550Z,4.30
2023-10-05T23:25:27.871Z,1.90
2023-10-05T23:27:56.243Z,1.30
2023-10-05T23:30:25.699Z,1.40
2023-10-05T23:32:54.762Z,0.60
2023-10-05T23:35:22.501Z,8.40
2023-10-05T23:37:54.219Z,3.30
2023-10-05T23:40:27.951Z,1.80
2023-10-05T23:42:55.928Z,2.10
2023-10-05T23:45:23.794Z,1.30
2023-10-05T23:47:55.517Z,2.20
2023-10-05T23:50:27.143Z,1.70
2023-10-05T23:52:56.257Z,2.10
2023-10-05T23:55:27.541Z,1.80
2023-10-05T23:57:55.606Z,1.60
